sensor_id;sensor_type;location;lat;lon;timestamp;P1;durP1;ratioP1;P2;durP2;ratioP2
2434;SDS011;1228;51.022;6.764;2023-08-08T00:00:07;3.63;;;3.33;;
2434;SDS011;1228;51.022;6.764;2023-08-08T00:02:34;4.57;;;3.80;;
2434;SDS011;1228;51.022;6.764;2023-08-08T00:04:59;4.17;;;3.80;;
2434;SDS011;1228;51.022;6.764;2023-08-08T00:07:25;3.80;;;3.60;;
2434;SDS011;1228;51.022;6.764;2023-08-08T00:09:55;4.60;;;3.63;;
2434;SDS011;1228;51.022;6.764;2023-08-08T00:12:21;3.90;;;3.60;;
2434;SDS011;1228;51.022;6.764;2023-08-08T00:14:47;5.93;;;3.80;;
2434;SDS011;1228;51.022;6.764;2023-08-08T00:17:12;4.10;;;3.80;;
2434;SDS011;1228;51.022;6.764;2023-08-08T00:19:38;5.00;;;3.90;;
2434;SDS011;1228;51.022;6.764;2023-08-08T00:22:04;4.20;;;3.80;;
2434;SDS011;1228;51.022;6.764;2023-08-08T00:24:29;4.03;;;3.57;;
2434;SDS011;1228;51.022;6.764;2023-08-08T00:26:55;4.70;;;3.70;;
2434;SDS011;1228;51.022;6.764;2023-08-08T00:29:21;4.70;;;4.30;;
2434;SDS011;1228;51.022;6.764;2023-08-08T00:31:46;5.97;;;4.47;;
2434;SDS011;1228;51.022;6.764;2023-08-08T00:34:12;4.57;;;4.07;;
2434;SDS011;1228;51.022;6.764;2023-08-08T00:36:37;7.13;;;4.10;;
2434;SDS011;1228;51.022;6.764;2023-08-08T00:39:03;5.70;;;4.70;;
2434;SDS011;1228;51.022;6.764;2023-08-08T00:41:29;4.07;;;3.67;;
2434;SDS011;1228;51.022;6.764;2023-08-08T00:43:54;4.43;;;4.17;;
2434;SDS011;1228;51.022;6.764;2023-08-08T00:46:20;3.83;;;3.63;;
2434;SDS011;1228;51.022;6.764;2023-08-08T00:48:49;5.77;;;4.20;;
2434;SDS011;1228;51.022;6.764;2023-08-08T00:51:15;5.67;;;3.70;;
2434;SDS011;1228;51.022;6.764;2023-08-08T00:53:42;5.37;;;3.97;;
2434;SDS011;1228;51.022;6.764;2023-08-08T00:56:09;4.37;;;4.00;;
2434;SDS011;1228;51.022;6.764;2023-08-08T00:58:36;4.20;;;3.90;;
2434;SDS011;1228;51.022;6.764;2023-08-08T01:01:02;4.67;;;4.37;;
2434;SDS011;1228;51.022;6.764;2023-08-08T01:03:28;3.90;;;3.60;;
2434;SDS011;1228;51.022;6.764;2023-08-08T01:05:59;9.33;;;4.23;;
2434;SDS011;1228;51.022;6.764;2023-08-08T01:08:33;5.23;;;3.83;;
2434;SDS011;1228;51.022;6.764;2023-08-08T01:11:05;5.13;;;3.80;;
2434;SDS011;1228;51.022;6.764;2023-08-08T01:13:31;5.23;;;3.83;;
2434;SDS011;1228;51.022;6.764;2023-08-08T01:15:58;4.53;;;4.13;;
2434;SDS011;1228;51.022;6.764;2023-08-08T01:18:25;8.17;;;4.67;;
2434;SDS011;1228;51.022;6.764;2023-08-08T01:20:51;4.63;;;4.17;;
2434;SDS011;1228;51.022;6.764;2023-08-08T01:23:32;5.43;;;4.23;;
2434;SDS011;1228;51.022;6.764;2023-08-08T01:26:04;4.53;;;4.13;;
2434;SDS011;1228;51.022;6.764;2023-08-08T01:28:29;4.10;;;3.70;;
2434;SDS011;1228;51.022;6.764;2023-08-08T01:30:55;5.70;;;3.57;;
2434;SDS011;1228;51.022;6.764;2023-08-08T01:33:21;4.30;;;4.00;;
2434;SDS011;1228;51.022;6.764;2023-08-08T01:35:48;4.67;;;4.13;;
2434;SDS011;1228;51.022;6.764;2023-08-08T01:38:29;8.17;;;4.13;;
2434;SDS011;1228;51.022;6.764;2023-08-08T01:40:58;4.47;;;4.10;;
2434;SDS011;1228;51.022;6.764;2023-08-08T01:43:25;5.73;;;4.00;;
2434;SDS011;1228;51.022;6.764;2023-08-08T01:45:52;4.03;;;3.73;;
2434;SDS011;1228;51.022;6.764;2023-08-08T01:48:18;5.00;;;4.60;;
2434;SDS011;1228;51.022;6.764;2023-08-08T01:50:44;5.00;;;4.57;;
2434;SDS011;1228;51.022;6.764;2023-08-08T01:53:09;4.80;;;4.40;;
2434;SDS011;1228;51.022;6.764;2023-08-08T01:55:35;5.23;;;4.37;;
2434;SDS011;1228;51.022;6.764;2023-08-08T01:58:01;4.27;;;3.87;;
2434;SDS011;1228;51.022;6.764;2023-08-08T02:00:26;4.40;;;4.10;;
2434;SDS011;1228;51.022;6.764;2023-08-08T02:02:52;4.47;;;4.17;;
2434;SDS011;1228;51.022;6.764;2023-08-08T02:05:18;4.20;;;3.90;;
2434;SDS011;1228;51.022;6.764;2023-08-08T02:07:43;4.80;;;4.20;;
2434;SDS011;1228;51.022;6.764;2023-08-08T02:10:09;7.47;;;4.73;;
2434;SDS011;1228;51.022;6.764;2023-08-08T02:12:34;5.40;;;4.60;;
2434;SDS011;1228;51.022;6.764;2023-08-08T02:15:00;4.90;;;4.50;;
2434;SDS011;1228;51.022;6.764;2023-08-08T02:17:25;5.33;;;4.83;;
2434;SDS011;1228;51.022;6.764;2023-08-08T02:19:52;5.43;;;4.77;;
2434;SDS011;1228;51.022;6.764;2023-08-08T02:22:18;4.77;;;4.23;;
2434;SDS011;1228;51.022;6.764;2023-08-08T02:24:43;4.53;;;4.00;;
2434;SDS011;1228;51.022;6.764;2023-08-08T02:27:09;9.03;;;4.60;;
2434;SDS011;1228;51.022;6.764;2023-08-08T02:29:36;7.60;;;4.57;;
2434;SDS011;1228;51.022;6.764;2023-08-08T02:32:01;4.87;;;4.47;;
2434;SDS011;1228;51.022;6.764;2023-08-08T02:34:27;4.73;;;4.20;;
2434;SDS011;1228;51.022;6.764;2023-08-08T02:36:53;6.13;;;4.70;;
2434;SDS011;1228;51.022;6.764;2023-08-08T02:39:18;4.60;;;4.20;;
2434;SDS011;1228;51.022;6.764;2023-08-08T02:41:44;4.93;;;4.40;;
2434;SDS011;1228;51.022;6.764;2023-08-08T02:44:10;4.60;;;4.20;;
2434;SDS011;1228;51.022;6.764;2023-08-08T02:46:35;4.77;;;4.30;;
2434;SDS011;1228;51.022;6.764;2023-08-08T02:49:03;4.70;;;4.40;;
2434;SDS011;1228;51.022;6.764;2023-08-08T02:51:29;5.30;;;4.53;;
2434;SDS011;1228;51.022;6.764;2023-08-08T02:53:54;4.93;;;4.53;;
2434;SDS011;1228;51.022;6.764;2023-08-08T02:56:20;4.93;;;4.50;;
2434;SDS011;1228;51.022;6.764;2023-08-08T02:58:46;5.93;;;4.87;;
2434;SDS011;1228;51.022;6.764;2023-08-08T03:01:11;5.20;;;4.70;;
2434;SDS011;1228;51.022;6.764;2023-08-08T03:03:41;4.87;;;4.47;;
2434;SDS011;1228;51.022;6.764;2023-08-08T03:06:07;6.50;;;4.67;;
2434;SDS011;1228;51.022;6.764;2023-08-08T03:08:33;4.60;;;4.20;;
2434;SDS011;1228;51.022;6.764;2023-08-08T03:10:58;4.80;;;4.30;;
2434;SDS011;1228;51.022;6.764;2023-08-08T03:13:24;5.53;;;4.20;;
2434;SDS011;1228;51.022;6.764;2023-08-08T03:15:50;5.27;;;4.77;;
2434;SDS011;1228;51.022;6.764;2023-08-08T03:18:15;4.60;;;4.20;;
2434;SDS011;1228;51.022;6.764;2023-08-08T03:20:41;6.87;;;4.73;;
2434;SDS011;1228;51.022;6.764;2023-08-08T03:23:06;5.23;;;4.73;;
2434;SDS011;1228;51.022;6.764;2023-08-08T03:25:32;4.97;;;4.60;;
2434;SDS011;1228;51.022;6.764;2023-08-08T03:27:58;4.90;;;4.10;;
2434;SDS011;1228;51.022;6.764;2023-08-08T03:30:23;4.63;;;4.33;;
2434;SDS011;1228;51.022;6.764;2023-08-08T03:32:49;8.07;;;4.20;;
2434;SDS011;1228;51.022;6.764;2023-08-08T03:35:15;7.00;;;4.97;;
2434;SDS011;1228;51.022;6.764;2023-08-08T03:37:41;7.27;;;4.30;;
2434;SDS011;1228;51.022;6.764;2023-08-08T03:40:07;5.40;;;4.10;;
2434;SDS011;1228;51.022;6.764;2023-08-08T03:42:33;4.77;;;4.30;;
2434;SDS011;1228;51.022;6.764;2023-08-08T03:44:59;9.30;;;4.33;;
2434;SDS011;1228;51.022;6.764;2023-08-08T03:47:25;4.83;;;4.43;;
2434;SDS011;1228;51.022;6.764;2023-08-08T03:49:50;5.77;;;4.67;;
2434;SDS011;1228;51.022;6.764;2023-08-08T03:52:20;5.37;;;4.60;;
2434;SDS011;1228;51.022;6.764;2023-08-08T03:54:45;10.10;;;4.60;;
2434;SDS011;1228;51.022;6.764;2023-08-08T03:57:11;6.50;;;5.07;;
2434;SDS011;1228;51.022;6.764;2023-08-08T03:59:37;6.30;;;4.60;;
2434;SDS011;1228;51.022;6.764;2023-08-08T04:02:02;7.93;;;4.43;;
2434;SDS011;1228;51.022;6.764;2023-08-08T04:04:29;5.20;;;4.60;;
2434;SDS011;1228;51.022;6.764;2023-08-08T04:06:54;6.43;;;4.80;;
2434;SDS011;1228;51.022;6.764;2023-08-08T04:09:20;4.73;;;4.30;;
2434;SDS011;1228;51.022;6.764;2023-08-08T04:11:46;5.90;;;4.67;;
2434;SDS011;1228;51.022;6.764;2023-08-08T04:14:11;7.53;;;4.87;;
2434;SDS011;1228;51.022;6.764;2023-08-08T04:16:38;5.20;;;4.70;;
2434;SDS011;1228;51.022;6.764;2023-08-08T04:19:04;7.00;;;5.00;;
2434;SDS011;1228;51.022;6.764;2023-08-08T04:21:30;5.67;;;4.83;;
2434;SDS011;1228;51.022;6.764;2023-08-08T04:23:58;5.40;;;4.57;;
2434;SDS011;1228;51.022;6.764;2023-08-08T04:26:24;6.17;;;5.00;;
2434;SDS011;1228;51.022;6.764;2023-08-08T04:28:50;4.77;;;4.13;;
2434;SDS011;1228;51.022;6.764;2023-08-08T04:31:15;5.37;;;4.70;;
2434;SDS011;1228;51.022;6.764;2023-08-08T04:33:41;5.73;;;4.90;;
2434;SDS011;1228;51.022;6.764;2023-08-08T04:36:06;5.40;;;4.90;;
2434;SDS011;1228;51.022;6.764;2023-08-08T04:38:32;9.70;;;5.00;;
2434;SDS011;1228;51.022;6.764;2023-08-08T04:40:58;6.77;;;4.53;;
2434;SDS011;1228;51.022;6.764;2023-08-08T04:43:24;6.60;;;4.73;;
2434;SDS011;1228;51.022;6.764;2023-08-08T04:45:50;7.30;;;5.40;;
2434;SDS011;1228;51.022;6.764;2023-08-08T04:48:16;10.10;;;5.00;;
2434;SDS011;1228;51.022;6.764;2023-08-08T04:50:41;8.73;;;6.13;;
2434;SDS011;1228;51.022;6.764;2023-08-08T04:53:07;5.57;;;4.87;;
2434;SDS011;1228;51.022;6.764;2023-08-08T04:55:32;6.30;;;4.80;;
2434;SDS011;1228;51.022;6.764;2023-08-08T04:57:58;7.47;;;5.60;;
2434;SDS011;1228;51.022;6.764;2023-08-08T05:00:25;5.33;;;4.90;;
2434;SDS011;1228;51.022;6.764;2023-08-08T05:02:51;5.03;;;4.53;;
2434;SDS011;1228;51.022;6.764;2023-08-08T05:05:16;11.17;;;5.07;;
2434;SDS011;1228;51.022;6.764;2023-08-08T05:07:42;5.17;;;4.53;;
2434;SDS011;1228;51.022;6.764;2023-08-08T05:10:08;8.40;;;4.87;;
2434;SDS011;1228;51.022;6.764;2023-08-08T05:12:33;6.97;;;5.37;;
2434;SDS011;1228;51.022;6.764;2023-08-08T05:14:59;4.70;;;4.37;;
2434;SDS011;1228;51.022;6.764;2023-08-08T05:17:24;5.17;;;4.80;;
2434;SDS011;1228;51.022;6.764;2023-08-08T05:19:50;5.23;;;4.33;;
2434;SDS011;1228;51.022;6.764;2023-08-08T05:22:16;7.03;;;4.53;;
2434;SDS011;1228;51.022;6.764;2023-08-08T05:24:41;5.67;;;5.10;;
2434;SDS011;1228;51.022;6.764;2023-08-08T05:27:07;8.87;;;4.67;;
2434;SDS011;1228;51.022;6.764;2023-08-08T05:29:32;5.73;;;5.13;;
2434;SDS011;1228;51.022;6.764;2023-08-08T05:31:59;9.13;;;4.93;;
2434;SDS011;1228;51.022;6.764;2023-08-08T05:34:24;12.20;;;4.83;;
2434;SDS011;1228;51.022;6.764;2023-08-08T05:36:50;5.67;;;4.90;;
2434;SDS011;1228;51.022;6.764;2023-08-08T05:39:16;9.00;;;5.27;;
2434;SDS011;1228;51.022;6.764;2023-08-08T05:41:41;7.03;;;4.97;;
2434;SDS011;1228;51.022;6.764;2023-08-08T05:44:07;11.63;;;5.20;;
2434;SDS011;1228;51.022;6.764;2023-08-08T05:46:32;5.03;;;4.53;;
2434;SDS011;1228;51.022;6.764;2023-08-08T05:48:58;5.43;;;4.53;;
2434;SDS011;1228;51.022;6.764;2023-08-08T05:51:23;11.60;;;5.87;;
2434;SDS011;1228;51.022;6.764;2023-08-08T05:53:49;6.10;;;4.63;;
2434;SDS011;1228;51.022;6.764;2023-08-08T05:56:15;5.00;;;4.37;;
2434;SDS011;1228;51.022;6.764;2023-08-08T05:58:40;7.57;;;4.47;;
2434;SDS011;1228;51.022;6.764;2023-08-08T06:01:06;7.73;;;4.50;;
2434;SDS011;1228;51.022;6.764;2023-08-08T06:03:34;6.13;;;4.60;;
2434;SDS011;1228;51.022;6.764;2023-08-08T06:06:00;5.13;;;4.27;;
2434;SDS011;1228;51.022;6.764;2023-08-08T06:08:26;6.20;;;4.40;;
2434;SDS011;1228;51.022;6.764;2023-08-08T06:10:52;7.43;;;4.87;;
2434;SDS011;1228;51.022;6.764;2023-08-08T06:13:17;6.00;;;4.47;;
2434;SDS011;1228;51.022;6.764;2023-08-08T06:15:43;6.87;;;4.33;;
2434;SDS011;1228;51.022;6.764;2023-08-08T06:18:08;7.90;;;4.00;;
2434;SDS011;1228;51.022;6.764;2023-08-08T06:20:34;5.50;;;3.83;;
2434;SDS011;1228;51.022;6.764;2023-08-08T06:23:00;4.77;;;4.10;;
2434;SDS011;1228;51.022;6.764;2023-08-08T06:25:25;5.77;;;3.63;;
2434;SDS011;1228;51.022;6.764;2023-08-08T06:27:51;4.53;;;4.13;;
2434;SDS011;1228;51.022;6.764;2023-08-08T06:30:16;9.03;;;4.23;;
2434;SDS011;1228;51.022;6.764;2023-08-08T06:32:42;6.00;;;4.17;;
2434;SDS011;1228;51.022;6.764;2023-08-08T06:35:08;4.87;;;4.00;;
2434;SDS011;1228;51.022;6.764;2023-08-08T06:37:34;5.80;;;3.97;;
2434;SDS011;1228;51.022;6.764;2023-08-08T06:39:59;6.50;;;4.03;;
2434;SDS011;1228;51.022;6.764;2023-08-08T06:42:25;7.10;;;4.00;;
2434;SDS011;1228;51.022;6.764;2023-08-08T06:44:51;5.83;;;3.70;;
2434;SDS011;1228;51.022;6.764;2023-08-08T06:47:16;5.13;;;3.43;;
2434;SDS011;1228;51.022;6.764;2023-08-08T06:49:42;3.80;;;3.50;;
2434;SDS011;1228;51.022;6.764;2023-08-08T06:52:08;6.03;;;3.90;;
2434;SDS011;1228;51.022;6.764;2023-08-08T06:54:33;6.67;;;3.77;;
2434;SDS011;1228;51.022;6.764;2023-08-08T06:56:59;7.70;;;4.93;;
2434;SDS011;1228;51.022;6.764;2023-08-08T06:59:26;5.23;;;3.33;;
2434;SDS011;1228;51.022;6.764;2023-08-08T07:01:52;10.00;;;3.90;;
2434;SDS011;1228;51.022;6.764;2023-08-08T07:04:18;7.43;;;4.00;;
2434;SDS011;1228;51.022;6.764;2023-08-08T07:06:44;5.10;;;3.73;;
2434;SDS011;1228;51.022;6.764;2023-08-08T07:09:10;9.67;;;4.83;;
2434;SDS011;1228;51.022;6.764;2023-08-08T07:11:36;7.97;;;4.33;;
2434;SDS011;1228;51.022;6.764;2023-08-08T07:14:02;5.60;;;3.83;;
2434;SDS011;1228;51.022;6.764;2023-08-08T07:16:28;6.13;;;3.60;;
2434;SDS011;1228;51.022;6.764;2023-08-08T07:18:53;8.13;;;3.97;;
2434;SDS011;1228;51.022;6.764;2023-08-08T07:21:19;8.90;;;4.10;;
2434;SDS011;1228;51.022;6.764;2023-08-08T07:23:45;6.70;;;3.87;;
2434;SDS011;1228;51.022;6.764;2023-08-08T07:26:11;5.33;;;3.97;;
2434;SDS011;1228;51.022;6.764;2023-08-08T07:28:37;5.53;;;4.20;;
2434;SDS011;1228;51.022;6.764;2023-08-08T07:31:02;9.07;;;4.03;;
2434;SDS011;1228;51.022;6.764;2023-08-08T07:33:28;5.83;;;3.93;;
2434;SDS011;1228;51.022;6.764;2023-08-08T07:35:54;9.73;;;4.27;;
2434;SDS011;1228;51.022;6.764;2023-08-08T07:38:19;6.57;;;4.30;;
2434;SDS011;1228;51.022;6.764;2023-08-08T07:40:45;6.70;;;3.97;;
2434;SDS011;1228;51.022;6.764;2023-08-08T07:43:11;5.53;;;4.17;;
2434;SDS011;1228;51.022;6.764;2023-08-08T07:45:36;4.17;;;3.87;;
2434;SDS011;1228;51.022;6.764;2023-08-08T07:48:02;6.37;;;4.60;;
2434;SDS011;1228;51.022;6.764;2023-08-08T07:50:29;7.23;;;4.13;;
2434;SDS011;1228;51.022;6.764;2023-08-08T07:52:54;6.57;;;4.20;;
2434;SDS011;1228;51.022;6.764;2023-08-08T07:55:20;8.33;;;4.70;;
2434;SDS011;1228;51.022;6.764;2023-08-08T07:57:45;4.37;;;3.73;;
2434;SDS011;1228;51.022;6.764;2023-08-08T08:00:11;7.93;;;3.87;;
2434;SDS011;1228;51.022;6.764;2023-08-08T08:02:46;6.70;;;4.13;;
2434;SDS011;1228;51.022;6.764;2023-08-08T08:05:12;8.00;;;5.00;;
2434;SDS011;1228;51.022;6.764;2023-08-08T08:07:38;6.07;;;4.30;;
2434;SDS011;1228;51.022;6.764;2023-08-08T08:10:05;8.53;;;4.37;;
2434;SDS011;1228;51.022;6.764;2023-08-08T08:12:34;12.17;;;4.27;;
2434;SDS011;1228;51.022;6.764;2023-08-08T08:15:00;6.30;;;4.97;;
2434;SDS011;1228;51.022;6.764;2023-08-08T08:17:26;8.17;;;4.93;;
2434;SDS011;1228;51.022;6.764;2023-08-08T08:19:53;10.97;;;4.83;;
2434;SDS011;1228;51.022;6.764;2023-08-08T08:22:19;10.40;;;5.33;;
2434;SDS011;1228;51.022;6.764;2023-08-08T08:24:45;8.47;;;5.67;;
2434;SDS011;1228;51.022;6.764;2023-08-08T08:27:11;7.30;;;5.83;;
2434;SDS011;1228;51.022;6.764;2023-08-08T08:29:37;10.60;;;6.53;;
2434;SDS011;1228;51.022;6.764;2023-08-08T08:32:02;16.20;;;6.80;;
2434;SDS011;1228;51.022;6.764;2023-08-08T08:34:28;7.70;;;6.30;;
2434;SDS011;1228;51.022;6.764;2023-08-08T08:36:54;8.80;;;6.60;;
2434;SDS011;1228;51.022;6.764;2023-08-08T08:39:20;7.57;;;5.57;;
2434;SDS011;1228;51.022;6.764;2023-08-08T08:41:47;8.27;;;5.07;;
2434;SDS011;1228;51.022;6.764;2023-08-08T08:44:14;8.97;;;6.33;;
2434;SDS011;1228;51.022;6.764;2023-08-08T08:46:41;10.30;;;5.73;;
2434;SDS011;1228;51.022;6.764;2023-08-08T08:49:07;10.40;;;5.50;;
2434;SDS011;1228;51.022;6.764;2023-08-08T08:51:35;10.53;;;5.73;;
2434;SDS011;1228;51.022;6.764;2023-08-08T08:54:01;7.77;;;5.13;;
2434;SDS011;1228;51.022;6.764;2023-08-08T08:56:28;10.53;;;5.93;;
2434;SDS011;1228;51.022;6.764;2023-08-08T08:58:54;8.03;;;4.70;;
2434;SDS011;1228;51.022;6.764;2023-08-08T09:01:19;7.20;;;5.10;;
2434;SDS011;1228;51.022;6.764;2023-08-08T09:03:48;12.17;;;5.47;;
2434;SDS011;1228;51.022;6.764;2023-08-08T09:06:14;8.80;;;5.07;;
2434;SDS011;1228;51.022;6.764;2023-08-08T09:08:41;5.20;;;4.60;;
2434;SDS011;1228;51.022;6.764;2023-08-08T09:11:07;5.97;;;4.60;;
2434;SDS011;1228;51.022;6.764;2023-08-08T09:13:37;4.93;;;4.33;;
2434;SDS011;1228;51.022;6.764;2023-08-08T09:16:04;5.20;;;4.57;;
2434;SDS011;1228;51.022;6.764;2023-08-08T09:18:31;6.67;;;4.37;;
2434;SDS011;1228;51.022;6.764;2023-08-08T09:20:57;5.70;;;4.60;;
2434;SDS011;1228;51.022;6.764;2023-08-08T09:23:23;7.27;;;4.30;;
2434;SDS011;1228;51.022;6.764;2023-08-08T09:25:49;4.37;;;4.00;;
2434;SDS011;1228;51.022;6.764;2023-08-08T09:28:15;8.07;;;4.70;;
2434;SDS011;1228;51.022;6.764;2023-08-08T09:30:41;4.83;;;4.37;;
2434;SDS011;1228;51.022;6.764;2023-08-08T09:33:07;4.93;;;3.77;;
2434;SDS011;1228;51.022;6.764;2023-08-08T09:35:33;6.17;;;4.00;;
2434;SDS011;1228;51.022;6.764;2023-08-08T09:37:59;4.93;;;4.37;;
2434;SDS011;1228;51.022;6.764;2023-08-08T09:40:25;8.47;;;4.27;;
2434;SDS011;1228;51.022;6.764;2023-08-08T09:42:51;9.63;;;4.40;;
2434;SDS011;1228;51.022;6.764;2023-08-08T09:45:18;9.00;;;4.53;;
2434;SDS011;1228;51.022;6.764;2023-08-08T09:47:44;8.17;;;4.33;;
2434;SDS011;1228;51.022;6.764;2023-08-08T09:50:11;8.43;;;4.40;;
2434;SDS011;1228;51.022;6.764;2023-08-08T09:52:36;5.33;;;3.77;;
2434;SDS011;1228;51.022;6.764;2023-08-08T09:55:04;4.87;;;4.00;;
2434;SDS011;1228;51.022;6.764;2023-08-08T09:57:30;4.77;;;3.80;;
2434;SDS011;1228;51.022;6.764;2023-08-08T09:59:57;5.67;;;4.50;;
2434;SDS011;1228;51.022;6.764;2023-08-08T10:02:23;4.90;;;4.30;;
2434;SDS011;1228;51.022;6.764;2023-08-08T10:04:49;9.00;;;5.10;;
2434;SDS011;1228;51.022;6.764;2023-08-08T10:07:15;6.03;;;4.40;;
2434;SDS011;1228;51.022;6.764;2023-08-08T10:09:41;4.37;;;4.03;;
2434;SDS011;1228;51.022;6.764;2023-08-08T10:12:07;5.80;;;3.60;;
2434;SDS011;1228;51.022;6.764;2023-08-08T10:14:37;4.93;;;3.97;;
2434;SDS011;1228;51.022;6.764;2023-08-08T10:17:03;4.60;;;3.70;;
2434;SDS011;1228;51.022;6.764;2023-08-08T10:19:29;4.97;;;4.37;;
2434;SDS011;1228;51.022;6.764;2023-08-08T10:21:56;3.80;;;3.40;;
2434;SDS011;1228;51.022;6.764;2023-08-08T10:24:23;7.90;;;3.83;;
2434;SDS011;1228;51.022;6.764;2023-08-08T10:26:59;4.20;;;3.80;;
2434;SDS011;1228;51.022;6.764;2023-08-08T10:29:27;4.20;;;3.57;;
2434;SDS011;1228;51.022;6.764;2023-08-08T10:31:58;3.63;;;3.33;;
2434;SDS011;1228;51.022;6.764;2023-08-08T10:34:42;3.50;;;3.20;;
2434;SDS011;1228;51.022;6.764;2023-08-08T10:37:09;5.80;;;4.30;;
2434;SDS011;1228;51.022;6.764;2023-08-08T10:39:59;3.67;;;3.37;;
2434;SDS011;1228;51.022;6.764;2023-08-08T10:42:30;7.40;;;3.30;;
2434;SDS011;1228;51.022;6.764;2023-08-08T10:44:57;3.83;;;3.33;;
2434;SDS011;1228;51.022;6.764;2023-08-08T10:47:34;4.67;;;3.47;;
2434;SDS011;1228;51.022;6.764;2023-08-08T10:55:34;5.57;;;3.93;;
2434;SDS011;1228;51.022;6.764;2023-08-08T10:58:12;6.70;;;4.23;;
2434;SDS011;1228;51.022;6.764;2023-08-08T11:00:44;3.50;;;3.20;;
2434;SDS011;1228;51.022;6.764;2023-08-08T11:03:10;7.07;;;3.37;;
2434;SDS011;1228;51.022;6.764;2023-08-08T11:05:37;4.20;;;3.43;;
2434;SDS011;1228;51.022;6.764;2023-08-08T11:08:04;8.97;;;4.17;;
2434;SDS011;1228;51.022;6.764;2023-08-08T11:10:35;4.90;;;3.43;;
2434;SDS011;1228;51.022;6.764;2023-08-08T11:13:03;4.23;;;3.60;;
2434;SDS011;1228;51.022;6.764;2023-08-08T11:15:31;6.10;;;3.40;;
2434;SDS011;1228;51.022;6.764;2023-08-08T11:17:58;4.00;;;3.40;;
2434;SDS011;1228;51.022;6.764;2023-08-08T11:20:24;3.93;;;3.30;;
2434;SDS011;1228;51.022;6.764;2023-08-08T11:22:54;4.03;;;3.00;;
2434;SDS011;1228;51.022;6.764;2023-08-08T11:25:21;5.30;;;3.87;;
2434;SDS011;1228;51.022;6.764;2023-08-08T11:27:53;4.87;;;3.30;;
2434;SDS011;1228;51.022;6.764;2023-08-08T11:30:20;3.70;;;3.00;;
2434;SDS011;1228;51.022;6.764;2023-08-08T11:32:47;5.17;;;3.63;;
2434;SDS011;1228;51.022;6.764;2023-08-08T11:35:17;7.03;;;3.50;;
2434;SDS011;1228;51.022;6.764;2023-08-08T11:37:44;5.07;;;3.57;;
2434;SDS011;1228;51.022;6.764;2023-08-08T11:40:11;4.43;;;3.07;;
2434;SDS011;1228;51.022;6.764;2023-08-08T11:42:38;4.83;;;3.80;;
2434;SDS011;1228;51.022;6.764;2023-08-08T11:45:06;5.47;;;3.30;;
2434;SDS011;1228;51.022;6.764;2023-08-08T11:47:34;6.57;;;3.40;;
2434;SDS011;1228;51.022;6.764;2023-08-08T11:50:02;3.63;;;3.33;;
2434;SDS011;1228;51.022;6.764;2023-08-08T11:52:29;3.73;;;3.53;;
2434;SDS011;1228;51.022;6.764;2023-08-08T11:54:55;7.10;;;3.63;;
2434;SDS011;1228;51.022;6.764;2023-08-08T11:57:21;3.80;;;3.20;;
2434;SDS011;1228;51.022;6.764;2023-08-08T11:59:48;7.80;;;4.07;;
2434;SDS011;1228;51.022;6.764;2023-08-08T12:02:14;3.70;;;3.40;;
2434;SDS011;1228;51.022;6.764;2023-08-08T12:04:47;3.93;;;3.53;;
2434;SDS011;1228;51.022;6.764;2023-08-08T12:07:12;3.90;;;3.60;;
2434;SDS011;1228;51.022;6.764;2023-08-08T12:09:38;5.93;;;3.63;;
2434;SDS011;1228;51.022;6.764;2023-08-08T12:12:04;3.70;;;3.40;;
2434;SDS011;1228;51.022;6.764;2023-08-08T12:14:31;3.80;;;3.50;;
2434;SDS011;1228;51.022;6.764;2023-08-08T12:17:04;4.77;;;4.37;;
2434;SDS011;1228;51.022;6.764;2023-08-08T12:19:30;4.03;;;3.60;;
2434;SDS011;1228;51.022;6.764;2023-08-08T12:21:56;4.00;;;3.53;;
2434;SDS011;1228;51.022;6.764;2023-08-08T12:24:21;7.53;;;3.93;;
2434;SDS011;1228;51.022;6.764;2023-08-08T12:26:47;7.13;;;4.07;;
2434;SDS011;1228;51.022;6.764;2023-08-08T12:29:13;6.13;;;4.10;;
2434;SDS011;1228;51.022;6.764;2023-08-08T12:31:39;7.37;;;4.17;;
2434;SDS011;1228;51.022;6.764;2023-08-08T12:34:04;6.37;;;4.43;;
2434;SDS011;1228;51.022;6.764;2023-08-08T12:36:30;5.30;;;4.70;;
2434;SDS011;1228;51.022;6.764;2023-08-08T12:38:56;5.93;;;4.27;;
2434;SDS011;1228;51.022;6.764;2023-08-08T12:41:22;5.10;;;4.60;;
2434;SDS011;1228;51.022;6.764;2023-08-08T12:43:49;7.13;;;4.07;;
2434;SDS011;1228;51.022;6.764;2023-08-08T12:46:15;4.43;;;4.10;;
2434;SDS011;1228;51.022;6.764;2023-08-08T12:48:41;5.30;;;4.40;;
2434;SDS011;1228;51.022;6.764;2023-08-08T12:51:08;6.67;;;5.00;;
2434;SDS011;1228;51.022;6.764;2023-08-08T12:53:34;6.10;;;5.50;;
2434;SDS011;1228;51.022;6.764;2023-08-08T12:55:59;5.97;;;4.50;;
2434;SDS011;1228;51.022;6.764;2023-08-08T12:58:25;6.37;;;4.67;;
2434;SDS011;1228;51.022;6.764;2023-08-08T13:00:51;6.40;;;4.40;;
2434;SDS011;1228;51.022;6.764;2023-08-08T13:03:17;4.80;;;4.10;;
2434;SDS011;1228;51.022;6.764;2023-08-08T13:05:43;6.57;;;4.00;;
2434;SDS011;1228;51.022;6.764;2023-08-08T13:08:08;5.23;;;3.67;;
2434;SDS011;1228;51.022;6.764;2023-08-08T13:10:34;4.07;;;3.67;;
2434;SDS011;1228;51.022;6.764;2023-08-08T13:13:01;5.47;;;3.93;;
2434;SDS011;1228;51.022;6.764;2023-08-08T13:15:26;6.67;;;3.80;;
2434;SDS011;1228;51.022;6.764;2023-08-08T13:17:52;3.77;;;3.43;;
2434;SDS011;1228;51.022;6.764;2023-08-08T13:20:18;3.73;;;3.27;;
2434;SDS011;1228;51.022;6.764;2023-08-08T13:22:43;4.77;;;3.30;;
2434;SDS011;1228;51.022;6.764;2023-08-08T13:25:09;5.43;;;3.40;;
2434;SDS011;1228;51.022;6.764;2023-08-08T13:27:35;9.20;;;4.30;;
2434;SDS011;1228;51.022;6.764;2023-08-08T13:30:01;4.53;;;3.87;;
2434;SDS011;1228;51.022;6.764;2023-08-08T13:32:27;5.53;;;4.40;;
2434;SDS011;1228;51.022;6.764;2023-08-08T13:34:53;4.63;;;3.70;;
2434;SDS011;1228;51.022;6.764;2023-08-08T13:37:18;4.77;;;3.30;;
2434;SDS011;1228;51.022;6.764;2023-08-08T13:39:44;4.97;;;3.30;;
2434;SDS011;1228;51.022;6.764;2023-08-08T13:42:10;4.20;;;3.43;;
2434;SDS011;1228;51.022;6.764;2023-08-08T13:44:35;4.13;;;3.37;;
2434;SDS011;1228;51.022;6.764;2023-08-08T13:47:01;3.93;;;3.10;;
2434;SDS011;1228;51.022;6.764;2023-08-08T13:49:27;3.70;;;2.60;;
2434;SDS011;1228;51.022;6.764;2023-08-08T13:51:53;3.63;;;3.10;;
2434;SDS011;1228;51.022;6.764;2023-08-08T13:54:19;4.82;;;4.15;;
2434;SDS011;1228;51.022;6.764;2023-08-08T13:56:45;3.28;;;2.97;;
2434;SDS011;1228;51.022;6.764;2023-08-08T13:59:10;3.25;;;2.78;;
2434;SDS011;1228;51.022;6.764;2023-08-08T14:01:36;3.03;;;2.70;;
2434;SDS011;1228;51.022;6.764;2023-08-08T14:04:02;4.40;;;3.20;;
2434;SDS011;1228;51.022;6.764;2023-08-08T14:06:27;4.33;;;3.70;;
2434;SDS011;1228;51.022;6.764;2023-08-08T14:08:54;6.00;;;3.13;;
2434;SDS011;1228;51.022;6.764;2023-08-08T14:11:19;5.10;;;3.23;;
2434;SDS011;1228;51.022;6.764;2023-08-08T14:13:45;3.40;;;3.10;;
2434;SDS011;1228;51.022;6.764;2023-08-08T14:16:11;2.90;;;2.70;;
2434;SDS011;1228;51.022;6.764;2023-08-08T14:18:37;3.20;;;2.90;;
2434;SDS011;1228;51.022;6.764;2023-08-08T14:21:02;3.35;;;3.08;;
2434;SDS011;1228;51.022;6.764;2023-08-08T14:23:29;5.38;;;3.33;;
2434;SDS011;1228;51.022;6.764;2023-08-08T14:25:55;4.57;;;3.10;;
2434;SDS011;1228;51.022;6.764;2023-08-08T14:28:21;4.20;;;3.20;;
2434;SDS011;1228;51.022;6.764;2023-08-08T14:30:46;4.50;;;3.10;;
2434;SDS011;1228;51.022;6.764;2023-08-08T14:33:15;5.15;;;3.33;;
2434;SDS011;1228;51.022;6.764;2023-08-08T14:35:41;7.97;;;3.88;;
2434;SDS011;1228;51.022;6.764;2023-08-08T14:38:07;3.85;;;3.55;;
2434;SDS011;1228;51.022;6.764;2023-08-08T14:40:33;4.20;;;4.00;;
2434;SDS011;1228;51.022;6.764;2023-08-08T14:42:59;5.90;;;3.75;;
2434;SDS011;1228;51.022;6.764;2023-08-08T14:45:26;3.33;;;3.07;;
2434;SDS011;1228;51.022;6.764;2023-08-08T14:47:52;7.07;;;3.43;;
2434;SDS011;1228;51.022;6.764;2023-08-08T14:50:18;4.37;;;4.00;;
2434;SDS011;1228;51.022;6.764;2023-08-08T14:52:44;3.83;;;3.60;;
2434;SDS011;1228;51.022;6.764;2023-08-08T14:55:10;3.00;;;2.80;;
2434;SDS011;1228;51.022;6.764;2023-08-08T14:57:35;3.28;;;3.08;;
2434;SDS011;1228;51.022;6.764;2023-08-08T15:00:01;4.53;;;2.90;;
2434;SDS011;1228;51.022;6.764;2023-08-08T15:02:27;4.13;;;3.67;;
2434;SDS011;1228;51.022;6.764;2023-08-08T15:04:53;4.05;;;3.63;;
2434;SDS011;1228;51.022;6.764;2023-08-08T15:07:19;3.77;;;3.50;;
2434;SDS011;1228;51.022;6.764;2023-08-08T15:09:44;4.80;;;2.80;;
2434;SDS011;1228;51.022;6.764;2023-08-08T15:12:12;3.42;;;3.15;;
2434;SDS011;1228;51.022;6.764;2023-08-08T15:14:41;3.37;;;3.17;;